createdAt,value
2019-06-07T00:01:31.007Z,10.00
2019-06-07T00:04:21.321Z,10.00
2019-06-07T00:07:10.633Z,10.00
2019-06-07T00:09:58.818Z,9.90
2019-06-07T00:12:46.839Z,9.80
2019-06-07T00:15:34.815Z,9.80
2019-06-07T00:18:25.806Z,9.70
2019-06-07T00:20:53.239Z,9.70
2019-06-07T00:23:41.219Z,9.60
2019-06-07T00:26:29.244Z,9.60
2019-06-07T00:29:18.988Z,9.60
2019-06-07T00:31:47.675Z,9.70
2019-06-07T00:34:35.607Z,9.60
2019-06-07T00:37:25.632Z,9.60
2019-06-07T00:40:19.735Z,9.60
2019-06-07T00:43:03.431Z,9.60
2019-06-07T00:45:51.429Z,9.50
2019-06-07T00:48:39.410Z,9.40
2019-06-07T00:51:27.396Z,9.40
2019-06-07T00:54:18.588Z,9.40
2019-06-07T00:57:05.339Z,9.40
2019-06-07T00:59:53.301Z,9.40
2019-06-07T01:02:41.271Z,9.40
2019-06-07T01:05:31.529Z,9.40
2019-06-07T01:08:21.899Z,9.40
2019-06-07T01:11:08.727Z,9.30
2019-06-07T01:13:56.695Z,9.30
2019-06-07T01:16:57.049Z,9.30
2019-06-07T01:19:34.424Z,9.30
2019-06-07T01:22:23.506Z,9.30
2019-06-07T01:24:53.066Z,9.30
2019-06-07T01:27:41.104Z,9.30
2019-06-07T01:30:29.477Z,9.30
2019-06-07T01:33:18.336Z,9.40
2019-06-07T01:36:07.314Z,9.40
2019-06-07T01:38:55.351Z,9.30
2019-06-07T01:41:43.571Z,9.30
2019-06-07T01:44:31.610Z,9.20
2019-06-07T01:47:12.198Z,9.20
2019-06-07T01:49:52.907Z,9.10
2019-06-07T01:52:23.535Z,9.00
2019-06-07T01:55:11.416Z,9.00
2019-06-07T01:57:59.355Z,8.90
2019-06-07T02:00:47.314Z,8.80
2019-06-07T02:03:35.274Z,8.70
2019-06-07T02:06:27.103Z,8.70
2019-06-07T02:09:13.027Z,8.80
2019-06-07T02:12:01.083Z,8.80
2019-06-07T02:14:32.979Z,8.70
2019-06-07T02:17:20.375Z,8.70
2019-06-07T02:20:09.441Z,8.70
2019-06-07T02:22:57.414Z,8.70
2019-06-07T02:25:50.210Z,8.60
2019-06-07T02:28:45.076Z,8.70
2019-06-07T02:31:27.732Z,8.60
2019-06-07T02:34:14.527Z,8.70
2019-06-07T02:37:02.586Z,8.60
2019-06-07T02:39:50.561Z,8.50
2019-06-07T02:42:42.568Z,8.50
2019-06-07T02:45:34.964Z,8.40
2019-06-07T02:48:10.830Z,8.40
2019-06-07T02:50:51.885Z,8.40
2019-06-07T02:53:38.364Z,8.40
2019-06-07T02:58:52.684Z,8.50
2019-06-07T03:01:21.639Z,8.50
2019-06-07T03:04:09.923Z,8.40
2019-06-07T03:07:18.498Z,8.50
2019-06-07T03:10:06.662Z,8.50
2019-06-07T03:12:54.702Z,8.60
2019-06-07T03:16:03.399Z,8.60
2019-06-07T03:19:11.133Z,8.50
2019-06-07T03:21:42.407Z,8.60
2019-06-07T03:24:51.003Z,8.60
2019-06-07T03:27:48.624Z,8.60
2019-06-07T03:30:48.251Z,8.60
2019-06-07T03:33:18.432Z,8.70
2019-06-07T03:36:22.664Z,8.70
2019-06-07T03:38:56.287Z,8.70
2019-06-07T03:42:04.696Z,8.70
2019-06-07T03:44:14.736Z,8.60
2019-06-07T03:46:55.984Z,8.60
2019-06-07T03:49:24.802Z,8.60
2019-06-07T03:52:12.758Z,8.60
2019-06-07T03:55:00.729Z,8.70
2019-06-07T04:00:42.722Z,8.80
2019-06-07T04:03:08.891Z,8.80
2019-06-07T04:05:56.846Z,8.80
2019-06-07T04:08:44.899Z,8.80
2019-06-07T04:11:34.992Z,8.80
2019-06-07T04:14:23.418Z,8.80
2019-06-07T04:17:12.351Z,8.80
2019-06-07T04:20:00.319Z,8.90
2019-06-07T04:22:48.304Z,8.90
2019-06-07T04:25:39.473Z,9.00
2019-06-07T04:29:19.140Z,9.00
2019-06-07T04:31:15.798Z,9.00
2019-06-07T04:34:03.938Z,9.00
2019-06-07T04:36:59.086Z,9.10
2019-06-07T04:39:45.119Z,9.10
2019-06-07T04:42:34.985Z,9.10
2019-06-07T04:45:33.741Z,9.10
2019-06-07T04:48:04.171Z,9.10
2019-06-07T04:50:45.388Z,9.10
2019-06-07T04:53:26.133Z,9.00
2019-06-07T04:55:56.395Z,9.10
2019-06-07T04:58:25.119Z,9.00
2019-06-07T05:01:01.341Z,9.10
2019-06-07T05:03:24.383Z,9.10
2019-06-07T05:09:00.147Z,9.20
2019-06-07T05:14:36.742Z,9.40
2019-06-07T05:17:25.501Z,9.40
2019-06-07T05:19:54.403Z,9.50
2019-06-07T05:22:45.069Z,9.60
2019-06-07T05:25:33.662Z,9.80
2019-06-07T05:28:21.843Z,9.80
2019-06-07T05:31:09.819Z,9.90
2019-06-07T05:33:57.802Z,10.00
2019-06-07T05:36:45.759Z,10.00
2019-06-07T05:39:36.874Z,10.20
2019-06-07T05:50:57.227Z,10.90
2019-06-07T05:53:45.977Z,11.10
2019-06-07T05:56:35.871Z,11.40
2019-06-07T05:59:24.494Z,11.50
2019-06-07T06:02:22.187Z,11.70
2019-06-07T06:05:02.591Z,12.00
2019-06-07T06:07:51.956Z,12.20
2019-06-07T06:10:42.940Z,12.40
2019-06-07T06:13:29.654Z,12.40
2019-06-07T06:16:17.722Z,12.70
2019-06-07T06:19:05.770Z,12.70
2019-06-07T06:21:54.078Z,12.80
2019-06-07T06:25:04.250Z,13.00
2019-06-07T06:30:21.731Z,13.30
2019-06-07T06:33:27.094Z,13.20
2019-06-07T06:35:59.489Z,13.30
2019-06-07T06:38:49.699Z,13.20
2019-06-07T06:41:53.761Z,13.30
2019-06-07T06:50:02.981Z,13.40
2019-06-07T06:52:54.429Z,13.40
2019-06-07T06:55:41.487Z,13.50
2019-06-07T06:58:23.306Z,13.60
2019-06-07T07:01:06.836Z,13.70
2019-06-07T07:03:57.654Z,13.90
2019-06-07T07:06:26.856Z,14.20
2019-06-07T07:09:14.014Z,14.60
2019-06-07T07:12:11.728Z,14.90
2019-06-07T07:14:52.952Z,15.10
2019-06-07T07:17:53.882Z,15.00
2019-06-07T07:20:31.190Z,14.60
2019-06-07T07:23:19.200Z,14.50
2019-06-07T07:26:07.413Z,14.50
2019-06-07T07:28:57.689Z,14.60
2019-06-07T07:31:46.381Z,14.40
2019-06-07T07:34:37.268Z,14.90
2019-06-07T07:37:05.597Z,15.30
2019-06-07T07:40:01.144Z,15.40
2019-06-07T07:42:24.275Z,15.60
2019-06-07T07:45:12.320Z,16.10
2019-06-07T07:48:14.740Z,16.70
2019-06-07T07:50:54.446Z,16.80
2019-06-07T07:53:52.123Z,17.10
2019-06-07T07:56:29.479Z,17.20
2019-06-07T07:59:09.981Z,16.70
2019-06-07T08:01:53.082Z,16.20
2019-06-07T08:05:12.712Z,15.90
2019-06-07T08:07:04.222Z,16.00
2019-06-07T08:09:57.753Z,16.30
2019-06-07T08:21:27.098Z,18.10
2019-06-07T08:24:15.655Z,18.10
2019-06-07T08:27:24.806Z,17.70
2019-06-07T08:30:08.999Z,18.10
2019-06-07T08:36:10.551Z,18.30
2019-06-07T08:38:47.972Z,18.50
2019-06-07T08:41:29.919Z,18.00
2019-06-07T08:44:23.691Z,18.10
2019-06-07T08:47:19.995Z,18.80
2019-06-07T08:50:04.388Z,19.40
2019-06-07T08:52:47.499Z,19.90
2019-06-07T08:55:35.522Z,20.50
2019-06-07T08:58:16.451Z,20.50
2019-06-07T09:01:03.894Z,20.40
2019-06-07T09:03:27.920Z,20.10
2019-06-07T09:06:00.663Z,20.10
2019-06-07T09:08:46.409Z,20.10
2019-06-07T09:11:34.427Z,20.00
2019-06-07T09:14:22.498Z,20.10
2019-06-07T09:17:12.485Z,19.90
2019-06-07T09:19:41.073Z,20.30
2019-06-07T09:22:29.093Z,20.40
2019-06-07T09:25:21.292Z,21.00
2019-06-07T09:28:17.515Z,21.50
2019-06-07T09:30:57.829Z,21.60
2019-06-07T09:33:46.588Z,21.50
2019-06-07T09:36:34.602Z,21.40
2019-06-07T09:39:43.202Z,21.30
2019-06-07T09:42:31.228Z,21.00
2019-06-07T09:45:19.189Z,21.80
2019-06-07T09:48:04.959Z,21.40
2019-06-07T09:50:42.262Z,21.30
2019-06-07T09:53:23.500Z,21.60
2019-06-07T09:56:08.734Z,21.60
2019-06-07T09:58:51.997Z,21.70
2019-06-07T10:01:29.495Z,22.10
2019-06-07T10:04:28.209Z,22.30
2019-06-07T10:06:53.060Z,22.10
2019-06-07T10:12:04.673Z,22.20
2019-06-07T10:14:53.745Z,22.00
2019-06-07T10:17:41.783Z,22.20
2019-06-07T10:20:29.751Z,22.20
2019-06-07T10:22:59.536Z,22.30
2019-06-07T10:25:48.174Z,22.40
2019-06-07T10:28:17.017Z,22.20
2019-06-07T10:31:07.317Z,22.40
2019-06-07T10:33:54.734Z,22.30
2019-06-07T10:36:42.839Z,22.70
2019-06-07T10:39:30.875Z,22.80
2019-06-07T10:42:18.863Z,23.10
2019-06-07T10:45:08.212Z,22.60
2019-06-07T10:47:49.521Z,22.50
2019-06-07T10:50:30.862Z,22.70
2019-06-07T10:53:12.597Z,22.80
2019-06-07T10:55:53.787Z,23.00
2019-06-07T10:58:34.565Z,23.00
2019-06-07T11:01:15.523Z,22.90
2019-06-07T11:03:56.236Z,23.10
2019-06-07T11:06:36.875Z,23.30
2019-06-07T11:09:17.842Z,23.20
2019-06-07T11:11:58.791Z,23.30
2019-06-07T11:14:39.574Z,23.40
2019-06-07T11:17:20.537Z,23.20
2019-06-07T11:20:02.298Z,23.30
2019-06-07T11:22:42.991Z,23.50
2019-06-07T11:25:23.921Z,23.40
2019-06-07T11:28:06.223Z,23.70
2019-06-07T11:30:46.690Z,23.70
2019-06-07T11:33:27.640Z,23.40
2019-06-07T11:36:08.582Z,23.40
2019-06-07T11:39:08.418Z,23.30
2019-06-07T11:41:37.802Z,23.20
2019-06-07T11:44:25.826Z,23.00
2019-06-07T11:47:06.490Z,23.30
2019-06-07T11:49:46.975Z,23.50
2019-06-07T11:52:27.334Z,23.70
2019-06-07T11:55:08.989Z,23.80
2019-06-07T11:57:50.029Z,23.50
2019-06-07T12:00:34.085Z,23.60
2019-06-07T12:03:13.881Z,23.70
2019-06-07T12:05:54.933Z,23.60
2019-06-07T12:08:35.667Z,23.50
2019-06-07T12:11:16.786Z,23.50
2019-06-07T12:13:45.586Z,23.70
2019-06-07T12:16:33.907Z,23.60
2019-06-07T12:19:21.892Z,23.80
2019-06-07T12:22:09.915Z,23.80
2019-06-07T12:24:57.934Z,23.90
2019-06-07T12:28:06.639Z,24.00
2019-06-07T12:30:55.283Z,23.90
2019-06-07T12:33:43.404Z,23.90
2019-06-07T12:36:31.364Z,23.80
2019-06-07T12:39:20.151Z,23.80
2019-06-07T12:41:50.147Z,23.70
2019-06-07T12:44:38.326Z,23.90
2019-06-07T12:47:19.455Z,24.00
2019-06-07T12:50:00.213Z,24.00
2019-06-07T12:52:48.419Z,24.20
2019-06-07T12:55:36.544Z,24.10
2019-06-07T12:58:31.026Z,24.20
2019-06-07T13:01:14.251Z,24.20
2019-06-07T13:04:02.288Z,24.40
2019-06-07T13:06:50.248Z,24.30
2019-06-07T13:09:38.212Z,24.40
2019-06-07T13:12:26.210Z,24.40
2019-06-07T13:15:17.663Z,24.50
2019-06-07T13:17:44.870Z,24.50
2019-06-07T13:20:33.009Z,24.50
2019-06-07T13:23:22.453Z,24.60
2019-06-07T13:26:11.139Z,24.20
2019-06-07T13:34:34.491Z,24.60
2019-06-07T13:37:23.355Z,24.70
2019-06-07T13:43:51.812Z,24.60
2019-06-07T13:49:21.777Z,24.80
2019-06-07T13:52:02.508Z,25.00
2019-06-07T13:54:43.751Z,25.00
2019-06-07T13:57:26.005Z,25.00
2019-06-07T14:00:10.799Z,25.00
2019-06-07T14:02:49.861Z,25.00
2019-06-07T14:05:30.398Z,25.10
2019-06-07T14:08:11.390Z,25.30
2019-06-07T14:10:52.263Z,25.30
2019-06-07T14:13:33.200Z,25.20
2019-06-07T14:16:13.804Z,25.30
2019-06-07T14:18:54.744Z,25.40
2019-06-07T14:21:35.420Z,25.30
2019-06-07T14:24:15.776Z,25.30
2019-06-07T14:27:15.725Z,25.40
2019-06-07T14:29:56.927Z,25.50
2019-06-07T14:32:37.733Z,25.30
2019-06-07T14:35:18.511Z,25.50
2019-06-07T14:37:59.359Z,25.60
2019-06-07T14:40:40.367Z,25.70
2019-06-07T14:43:20.752Z,25.70
2019-06-07T14:46:01.643Z,25.70
2019-06-07T14:48:42.155Z,25.60
2019-06-07T14:51:24.153Z,25.60
2019-06-07T14:54:04.767Z,25.50
2019-06-07T14:56:45.268Z,25.60
2019-06-07T14:59:26.393Z,25.60
2019-06-07T15:02:06.986Z,25.50
2019-06-07T15:04:56.421Z,25.40
2019-06-07T15:07:44.428Z,25.30
2019-06-07T15:10:33.645Z,25.20
2019-06-07T15:13:02.840Z,25.10
2019-06-07T15:15:50.877Z,25.10
2019-06-07T15:18:38.985Z,25.20
2019-06-07T15:21:26.945Z,25.30
2019-06-07T15:24:14.963Z,25.30
2019-06-07T15:27:02.994Z,25.10
2019-06-07T15:29:51.015Z,25.10
2019-06-07T15:35:28.362Z,25.10
2019-06-07T15:38:16.319Z,25.30
2019-06-07T15:41:04.347Z,25.30
2019-06-07T15:43:52.389Z,25.30
2019-06-07T15:46:40.457Z,25.20
2019-06-07T15:49:21.575Z,25.10
2019-06-07T15:52:02.324Z,24.90
2019-06-07T15:54:43.252Z,24.80
2019-06-07T15:57:23.900Z,24.60
2019-06-07T16:00:04.905Z,24.60
2019-06-07T16:02:45.747Z,24.40
2019-06-07T16:05:54.330Z,24.30
2019-06-07T16:08:23.067Z,24.30
2019-06-07T16:11:11.076Z,24.10
2019-06-07T16:13:59.026Z,24.00
2019-06-07T16:16:27.772Z,23.90
2019-06-07T16:19:15.839Z,23.90
2019-06-07T16:22:04.109Z,23.90
2019-06-07T16:24:33.664Z,24.00
2019-06-07T16:27:22.563Z,24.00
2019-06-07T16:32:58.155Z,24.10
2019-06-07T16:35:46.143Z,24.20
2019-06-07T16:38:34.343Z,24.20
2019-06-07T16:41:22.315Z,24.00
2019-06-07T16:44:10.293Z,23.90
2019-06-07T16:49:52.420Z,23.40
2019-06-07T16:52:41.915Z,23.10
2019-06-07T16:55:30.307Z,22.90
2019-06-07T16:58:18.480Z,22.70
2019-06-07T17:01:06.530Z,22.60
2019-06-07T17:03:54.689Z,22.60
2019-06-07T17:06:23.545Z,22.50
2019-06-07T17:09:11.538Z,22.60
2019-06-07T17:11:59.599Z,22.50
2019-06-07T17:14:48.721Z,22.10
2019-06-07T17:17:18.554Z,21.20
2019-06-07T17:20:06.931Z,20.40
2019-06-07T17:22:55.153Z,20.00
2019-06-07T17:25:43.530Z,19.70
2019-06-07T17:28:32.935Z,19.30
2019-06-07T17:31:20.911Z,19.10
2019-06-07T17:34:08.866Z,18.80
2019-06-07T17:36:56.899Z,18.60
2019-06-07T17:39:45.086Z,18.40
2019-06-07T17:42:34.787Z,18.30
2019-06-07T17:45:22.730Z,18.10
2019-06-07T17:48:02.069Z,18.00
2019-06-07T17:50:50.087Z,17.90
2019-06-07T17:53:38.346Z,17.70
2019-06-07T17:56:26.372Z,17.50
2019-06-07T17:59:14.343Z,17.30
2019-06-07T18:02:14.317Z,17.00
2019-06-07T18:07:39.711Z,16.70
2019-06-07T18:14:10.308Z,16.40
2019-06-07T18:22:26.339Z,15.70
2019-06-07T18:25:14.705Z,15.30
2019-06-07T18:28:02.926Z,15.00
2019-06-07T18:30:51.006Z,14.90
2019-06-07T18:33:39.051Z,14.60
2019-06-07T18:36:27.028Z,14.50
2019-06-07T18:39:15.044Z,14.40
2019-06-07T18:42:03.002Z,14.40
2019-06-07T18:44:51.087Z,14.30
2019-06-07T18:47:39.047Z,14.20
2019-06-07T18:50:27.039Z,14.20
2019-06-07T18:53:15.052Z,14.20
2019-06-07T18:56:03.108Z,14.10
2019-06-07T18:58:51.123Z,14.10
2019-06-07T19:01:39.047Z,14.10
2019-06-07T19:04:07.791Z,14.00
2019-06-07T19:06:56.389Z,14.00
2019-06-07T19:09:45.694Z,14.00
2019-06-07T19:12:33.650Z,13.90
2019-06-07T19:15:22.150Z,13.90
2019-06-07T19:18:10.133Z,13.90
2019-06-07T19:20:58.566Z,14.00
2019-06-07T19:23:47.920Z,14.10
2019-06-07T19:26:35.879Z,14.00
2019-06-07T19:29:23.897Z,14.10
2019-06-07T19:32:11.946Z,14.00
2019-06-07T19:35:00.065Z,13.90
2019-06-07T19:37:48.119Z,13.90
2019-06-07T19:40:36.191Z,13.80
2019-06-07T19:43:24.446Z,13.80
2019-06-07T19:46:12.403Z,13.80
2019-06-07T19:48:53.016Z,13.90
2019-06-07T19:51:33.950Z,13.80
2019-06-07T19:54:14.991Z,13.80
2019-06-07T19:56:43.774Z,13.80
2019-06-07T19:59:12.618Z,13.80
2019-06-07T20:01:41.383Z,13.80
2019-06-07T20:04:10.175Z,13.70
2019-06-07T20:06:38.897Z,13.70
2019-06-07T20:09:08.054Z,13.60
2019-06-07T20:11:36.906Z,13.50
2019-06-07T20:14:24.651Z,13.50
2019-06-07T20:16:55.115Z,13.50
2019-06-07T20:19:43.270Z,13.40
2019-06-07T20:22:31.234Z,13.50
2019-06-07T20:25:19.341Z,13.40
2019-06-07T20:28:07.304Z,13.40
2019-06-07T20:30:55.281Z,13.40
2019-06-07T20:33:43.275Z,13.40
2019-06-07T20:36:31.244Z,13.40
2019-06-07T20:42:26.388Z,13.60
2019-06-07T20:45:14.676Z,13.70
2019-06-07T20:47:55.020Z,13.70
2019-06-07T20:50:35.836Z,13.60
2019-06-07T20:53:16.549Z,13.50
2019-06-07T20:55:58.488Z,13.50
2019-06-07T20:58:27.420Z,13.50
2019-06-07T21:01:15.483Z,13.50
2019-06-07T21:04:03.539Z,13.60
2019-06-07T21:06:51.507Z,13.60
2019-06-07T21:09:39.492Z,13.60
2019-06-07T21:12:27.525Z,13.60
2019-06-07T21:15:15.543Z,13.50
2019-06-07T21:18:08.712Z,13.50
2019-06-07T21:20:53.235Z,13.60
2019-06-07T21:23:41.200Z,13.70
2019-06-07T21:26:29.167Z,13.80
2019-06-07T21:29:17.153Z,14.00
2019-06-07T21:32:05.416Z,14.10
2019-06-07T21:34:54.827Z,14.10
2019-06-07T21:37:42.779Z,14.20
2019-06-07T21:40:30.827Z,14.20
2019-06-07T21:42:59.673Z,14.40
2019-06-07T21:45:47.683Z,14.30
2019-06-07T21:48:28.238Z,14.30
2019-06-07T21:51:09.007Z,14.20
2019-06-07T21:53:50.320Z,14.30
2019-06-07T21:56:31.215Z,14.20
2019-06-07T21:59:13.349Z,14.20
2019-06-07T22:01:54.270Z,14.20
2019-06-07T22:04:35.000Z,14.20
2019-06-07T22:07:15.969Z,14.20
2019-06-07T22:09:44.775Z,14.20
2019-06-07T22:12:32.799Z,14.10
2019-06-07T22:15:33.024Z,14.00
2019-06-07T22:18:10.919Z,13.90
2019-06-07T22:20:58.924Z,13.70
2019-06-07T22:23:46.895Z,13.60
2019-06-07T22:26:35.141Z,13.50
2019-06-07T22:29:23.135Z,13.60
2019-06-07T22:32:11.115Z,13.60
2019-06-07T22:34:39.844Z,13.50
2019-06-07T22:37:27.879Z,13.40
2019-06-07T22:40:16.024Z,13.30
2019-06-07T22:43:04.119Z,13.10
2019-06-07T22:45:33.160Z,13.10
2019-06-07T22:48:15.439Z,13.00
2019-06-07T22:50:57.735Z,12.90
2019-06-07T22:53:43.942Z,12.90
2019-06-07T22:59:48.591Z,12.80
2019-06-07T23:02:29.331Z,13.00
2019-06-07T23:05:10.680Z,13.30
2019-06-07T23:07:51.158Z,13.40
2019-06-07T23:10:31.743Z,13.60
2019-06-07T23:13:13.585Z,13.60
2019-06-07T23:15:42.526Z,13.60
2019-06-07T23:18:30.483Z,13.60
2019-06-07T23:21:18.515Z,13.60
2019-06-07T23:23:47.366Z,13.70
2019-06-07T23:26:35.314Z,13.80
2019-06-07T23:29:23.350Z,14.00
2019-06-07T23:32:12.504Z,14.10
2019-06-07T23:35:00.974Z,14.20
2019-06-07T23:37:48.950Z,14.30
2019-06-07T23:40:36.919Z,14.50
2019-06-07T23:43:24.882Z,14.70
2019-06-07T23:46:13.446Z,14.70
2019-06-07T23:48:55.407Z,14.80
2019-06-07T23:51:36.296Z,14.90
2019-06-07T23:54:17.833Z,15.00
2019-06-07T23:56:59.007Z,14.90
2019-06-07T23:59:39.639Z,14.90
